sensor_id;sensor_type;location;lat;lon;timestamp;P1;durP1;ratioP1;P2;durP2;ratioP2
25333;SDS011;24559;53.590;9.764;2023-07-30T00:01:02;5.22;;;4.60;;
25333;SDS011;24559;53.590;9.764;2023-07-30T00:03:28;6.28;;;4.63;;
25333;SDS011;24559;53.590;9.764;2023-07-30T00:05:57;6.38;;;4.38;;
25333;SDS011;24559;53.590;9.764;2023-07-30T00:08:23;6.85;;;5.32;;
25333;SDS011;24559;53.590;9.764;2023-07-30T00:10:49;6.32;;;4.72;;
25333;SDS011;24559;53.590;9.764;2023-07-30T00:13:16;5.47;;;5.05;;
25333;SDS011;24559;53.590;9.764;2023-07-30T00:15:42;4.13;;;3.72;;
25333;SDS011;24559;53.590;9.764;2023-07-30T00:18:08;4.93;;;4.60;;
25333;SDS011;24559;53.590;9.764;2023-07-30T00:20:34;6.22;;;4.07;;
25333;SDS011;24559;53.590;9.764;2023-07-30T00:23:01;5.55;;;4.50;;
25333;SDS011;24559;53.590;9.764;2023-07-30T00:25:27;5.70;;;3.75;;
25333;SDS011;24559;53.590;9.764;2023-07-30T00:27:53;5.03;;;4.35;;
25333;SDS011;24559;53.590;9.764;2023-07-30T00:30:19;7.18;;;5.00;;
25333;SDS011;24559;53.590;9.764;2023-07-30T00:32:45;4.30;;;4.00;;
25333;SDS011;24559;53.590;9.764;2023-07-30T00:35:11;7.50;;;4.13;;
25333;SDS011;24559;53.590;9.764;2023-07-30T00:37:38;5.50;;;4.95;;
25333;SDS011;24559;53.590;9.764;2023-07-30T00:40:06;6.75;;;4.43;;
25333;SDS011;24559;53.590;9.764;2023-07-30T00:42:32;3.95;;;3.67;;
25333;SDS011;24559;53.590;9.764;2023-07-30T00:44:58;4.63;;;4.07;;
25333;SDS011;24559;53.590;9.764;2023-07-30T00:47:24;5.18;;;4.20;;
25333;SDS011;24559;53.590;9.764;2023-07-30T00:49:51;4.25;;;3.95;;
25333;SDS011;24559;53.590;9.764;2023-07-30T00:52:19;6.32;;;3.80;;
25333;SDS011;24559;53.590;9.764;2023-07-30T00:54:46;9.18;;;4.60;;
25333;SDS011;24559;53.590;9.764;2023-07-30T00:57:13;3.53;;;3.33;;
25333;SDS011;24559;53.590;9.764;2023-07-30T00:59:40;7.13;;;4.70;;
25333;SDS011;24559;53.590;9.764;2023-07-30T01:02:06;4.35;;;4.00;;
25333;SDS011;24559;53.590;9.764;2023-07-30T01:04:33;4.30;;;3.90;;
25333;SDS011;24559;53.590;9.764;2023-07-30T01:06:59;4.32;;;4.03;;
25333;SDS011;24559;53.590;9.764;2023-07-30T01:09:25;4.25;;;3.60;;
25333;SDS011;24559;53.590;9.764;2023-07-30T01:11:52;5.30;;;4.78;;
25333;SDS011;24559;53.590;9.764;2023-07-30T01:14:20;4.22;;;3.83;;
25333;SDS011;24559;53.590;9.764;2023-07-30T01:16:47;4.82;;;3.58;;
25333;SDS011;24559;53.590;9.764;2023-07-30T01:19:14;5.13;;;3.15;;
25333;SDS011;24559;53.590;9.764;2023-07-30T01:21:40;6.28;;;4.20;;
25333;SDS011;24559;53.590;9.764;2023-07-30T01:24:06;4.35;;;3.75;;
25333;SDS011;24559;53.590;9.764;2023-07-30T01:26:35;4.40;;;3.88;;
25333;SDS011;24559;53.590;9.764;2023-07-30T01:29:03;4.45;;;4.05;;
25333;SDS011;24559;53.590;9.764;2023-07-30T01:31:33;5.80;;;4.25;;
25333;SDS011;24559;53.590;9.764;2023-07-30T01:34:00;4.50;;;4.05;;
25333;SDS011;24559;53.590;9.764;2023-07-30T01:36:29;6.22;;;4.55;;
25333;SDS011;24559;53.590;9.764;2023-07-30T01:38:55;3.83;;;3.63;;
25333;SDS011;24559;53.590;9.764;2023-07-30T01:41:22;6.78;;;5.35;;
25333;SDS011;24559;53.590;9.764;2023-07-30T01:43:49;4.28;;;3.97;;
25333;SDS011;24559;53.590;9.764;2023-07-30T01:46:16;6.60;;;3.85;;
25333;SDS011;24559;53.590;9.764;2023-07-30T01:48:42;10.15;;;6.97;;
25333;SDS011;24559;53.590;9.764;2023-07-30T01:51:08;6.28;;;5.65;;
25333;SDS011;24559;53.590;9.764;2023-07-30T01:53:34;6.35;;;4.82;;
25333;SDS011;24559;53.590;9.764;2023-07-30T01:56:00;6.53;;;5.60;;
25333;SDS011;24559;53.590;9.764;2023-07-30T01:58:26;7.38;;;4.93;;
25333;SDS011;24559;53.590;9.764;2023-07-30T02:00:52;7.80;;;5.65;;
25333;SDS011;24559;53.590;9.764;2023-07-30T02:03:19;6.15;;;5.28;;
25333;SDS011;24559;53.590;9.764;2023-07-30T02:05:45;5.95;;;4.90;;
25333;SDS011;24559;53.590;9.764;2023-07-30T02:08:12;7.70;;;5.60;;
25333;SDS011;24559;53.590;9.764;2023-07-30T02:10:41;5.25;;;4.75;;
25333;SDS011;24559;53.590;9.764;2023-07-30T02:13:07;5.80;;;5.30;;
25333;SDS011;24559;53.590;9.764;2023-07-30T02:15:33;5.72;;;5.20;;
25333;SDS011;24559;53.590;9.764;2023-07-30T02:17:59;8.52;;;6.80;;
25333;SDS011;24559;53.590;9.764;2023-07-30T02:20:26;10.55;;;6.60;;
25333;SDS011;24559;53.590;9.764;2023-07-30T02:22:52;5.95;;;5.35;;
25333;SDS011;24559;53.590;9.764;2023-07-30T02:25:19;8.38;;;6.38;;
25333;SDS011;24559;53.590;9.764;2023-07-30T02:27:45;10.48;;;7.28;;
25333;SDS011;24559;53.590;9.764;2023-07-30T02:30:11;6.32;;;5.80;;
25333;SDS011;24559;53.590;9.764;2023-07-30T02:32:37;9.00;;;7.57;;
25333;SDS011;24559;53.590;9.764;2023-07-30T02:35:03;9.88;;;6.35;;
25333;SDS011;24559;53.590;9.764;2023-07-30T02:37:30;7.20;;;6.50;;
25333;SDS011;24559;53.590;9.764;2023-07-30T02:39:56;10.10;;;7.10;;
25333;SDS011;24559;53.590;9.764;2023-07-30T02:42:22;7.75;;;6.93;;
25333;SDS011;24559;53.590;9.764;2023-07-30T02:44:48;8.27;;;7.47;;
25333;SDS011;24559;53.590;9.764;2023-07-30T02:47:15;9.38;;;6.85;;
25333;SDS011;24559;53.590;9.764;2023-07-30T02:49:41;9.40;;;8.13;;
25333;SDS011;24559;53.590;9.764;2023-07-30T02:52:07;9.00;;;7.50;;
25333;SDS011;24559;53.590;9.764;2023-07-30T02:54:33;8.43;;;7.55;;
25333;SDS011;24559;53.590;9.764;2023-07-30T02:57:00;7.93;;;7.25;;
25333;SDS011;24559;53.590;9.764;2023-07-30T02:59:26;9.68;;;7.95;;
25333;SDS011;24559;53.590;9.764;2023-07-30T03:01:53;10.20;;;7.78;;
25333;SDS011;24559;53.590;9.764;2023-07-30T03:04:19;11.32;;;7.90;;
25333;SDS011;24559;53.590;9.764;2023-07-30T03:06:45;11.55;;;9.88;;
25333;SDS011;24559;53.590;9.764;2023-07-30T03:09:12;9.63;;;8.63;;
25333;SDS011;24559;53.590;9.764;2023-07-30T03:11:38;8.18;;;7.50;;
25333;SDS011;24559;53.590;9.764;2023-07-30T03:14:04;9.13;;;8.18;;
25333;SDS011;24559;53.590;9.764;2023-07-30T03:16:30;9.05;;;8.15;;
25333;SDS011;24559;53.590;9.764;2023-07-30T03:18:56;10.60;;;8.20;;
25333;SDS011;24559;53.590;9.764;2023-07-30T03:21:23;17.33;;;8.95;;
25333;SDS011;24559;53.590;9.764;2023-07-30T03:23:49;8.65;;;7.70;;
25333;SDS011;24559;53.590;9.764;2023-07-30T03:26:15;11.30;;;10.20;;
25333;SDS011;24559;53.590;9.764;2023-07-30T03:28:41;18.95;;;10.10;;
25333;SDS011;24559;53.590;9.764;2023-07-30T03:31:07;12.05;;;8.52;;
25333;SDS011;24559;53.590;9.764;2023-07-30T03:33:34;11.13;;;9.23;;
25333;SDS011;24559;53.590;9.764;2023-07-30T03:36:00;12.82;;;10.15;;
25333;SDS011;24559;53.590;9.764;2023-07-30T03:38:26;9.85;;;7.30;;
25333;SDS011;24559;53.590;9.764;2023-07-30T03:40:52;9.70;;;8.40;;
25333;SDS011;24559;53.590;9.764;2023-07-30T03:43:19;10.85;;;9.02;;
25333;SDS011;24559;53.590;9.764;2023-07-30T03:45:45;9.63;;;7.28;;
25333;SDS011;24559;53.590;9.764;2023-07-30T03:48:11;11.65;;;8.25;;
25333;SDS011;24559;53.590;9.764;2023-07-30T03:50:37;11.38;;;8.40;;
25333;SDS011;24559;53.590;9.764;2023-07-30T03:53:04;10.52;;;9.43;;
25333;SDS011;24559;53.590;9.764;2023-07-30T03:55:30;9.20;;;8.40;;
25333;SDS011;24559;53.590;9.764;2023-07-30T03:57:57;10.27;;;9.25;;
25333;SDS011;24559;53.590;9.764;2023-07-30T04:00:23;8.30;;;6.90;;
25333;SDS011;24559;53.590;9.764;2023-07-30T04:02:50;12.75;;;7.38;;
25333;SDS011;24559;53.590;9.764;2023-07-30T04:05:16;10.90;;;9.13;;
25333;SDS011;24559;53.590;9.764;2023-07-30T04:07:42;12.00;;;8.88;;
25333;SDS011;24559;53.590;9.764;2023-07-30T04:10:08;12.80;;;8.30;;
25333;SDS011;24559;53.590;9.764;2023-07-30T04:12:34;14.65;;;9.10;;
25333;SDS011;24559;53.590;9.764;2023-07-30T04:15:01;10.50;;;9.05;;
25333;SDS011;24559;53.590;9.764;2023-07-30T04:17:27;12.60;;;8.10;;
25333;SDS011;24559;53.590;9.764;2023-07-30T04:19:53;9.10;;;7.63;;
25333;SDS011;24559;53.590;9.764;2023-07-30T04:22:19;9.23;;;8.30;;
25333;SDS011;24559;53.590;9.764;2023-07-30T04:24:45;14.60;;;8.90;;
25333;SDS011;24559;53.590;9.764;2023-07-30T04:27:12;11.70;;;8.38;;
25333;SDS011;24559;53.590;9.764;2023-07-30T04:29:38;10.85;;;9.65;;
25333;SDS011;24559;53.590;9.764;2023-07-30T04:32:05;9.98;;;8.43;;
25333;SDS011;24559;53.590;9.764;2023-07-30T04:34:31;16.55;;;9.70;;
25333;SDS011;24559;53.590;9.764;2023-07-30T04:36:57;8.80;;;7.90;;
25333;SDS011;24559;53.590;9.764;2023-07-30T04:39:24;20.20;;;11.18;;
25333;SDS011;24559;53.590;9.764;2023-07-30T04:41:50;10.07;;;8.38;;
25333;SDS011;24559;53.590;9.764;2023-07-30T04:44:16;10.05;;;8.45;;
25333;SDS011;24559;53.590;9.764;2023-07-30T04:46:43;8.52;;;7.72;;
25333;SDS011;24559;53.590;9.764;2023-07-30T04:49:09;9.95;;;7.90;;
25333;SDS011;24559;53.590;9.764;2023-07-30T04:51:35;8.65;;;7.03;;
25333;SDS011;24559;53.590;9.764;2023-07-30T04:54:02;11.45;;;7.60;;
25333;SDS011;24559;53.590;9.764;2023-07-30T04:56:29;14.48;;;7.85;;
25333;SDS011;24559;53.590;9.764;2023-07-30T04:58:55;14.85;;;8.63;;
25333;SDS011;24559;53.590;9.764;2023-07-30T05:01:21;12.55;;;7.63;;
25333;SDS011;24559;53.590;9.764;2023-07-30T05:03:47;13.93;;;7.78;;
25333;SDS011;24559;53.590;9.764;2023-07-30T05:06:13;12.07;;;9.00;;
25333;SDS011;24559;53.590;9.764;2023-07-30T05:08:40;12.27;;;7.97;;
25333;SDS011;24559;53.590;9.764;2023-07-30T05:11:06;12.48;;;7.75;;
25333;SDS011;24559;53.590;9.764;2023-07-30T05:13:32;12.60;;;7.32;;
25333;SDS011;24559;53.590;9.764;2023-07-30T05:15:58;11.27;;;7.70;;
25333;SDS011;24559;53.590;9.764;2023-07-30T05:18:25;14.55;;;8.70;;
25333;SDS011;24559;53.590;9.764;2023-07-30T05:20:54;11.45;;;7.82;;
25333;SDS011;24559;53.590;9.764;2023-07-30T05:23:20;10.90;;;7.03;;
25333;SDS011;24559;53.590;9.764;2023-07-30T05:25:47;12.80;;;7.07;;
25333;SDS011;24559;53.590;9.764;2023-07-30T05:28:13;12.68;;;8.32;;
25333;SDS011;24559;53.590;9.764;2023-07-30T05:30:39;11.38;;;6.97;;
25333;SDS011;24559;53.590;9.764;2023-07-30T05:33:05;18.13;;;9.90;;
25333;SDS011;24559;53.590;9.764;2023-07-30T05:35:32;16.80;;;7.90;;
25333;SDS011;24559;53.590;9.764;2023-07-30T05:37:58;11.18;;;8.20;;
25333;SDS011;24559;53.590;9.764;2023-07-30T05:40:24;12.65;;;7.50;;
25333;SDS011;24559;53.590;9.764;2023-07-30T05:42:51;15.57;;;8.30;;
25333;SDS011;24559;53.590;9.764;2023-07-30T05:45:17;15.75;;;7.95;;
25333;SDS011;24559;53.590;9.764;2023-07-30T05:47:43;13.38;;;7.82;;
25333;SDS011;24559;53.590;9.764;2023-07-30T05:50:09;11.32;;;6.97;;
25333;SDS011;24559;53.590;9.764;2023-07-30T05:52:36;13.10;;;7.75;;
25333;SDS011;24559;53.590;9.764;2023-07-30T05:55:02;10.10;;;6.97;;
25333;SDS011;24559;53.590;9.764;2023-07-30T05:57:28;12.57;;;6.53;;
25333;SDS011;24559;53.590;9.764;2023-07-30T05:59:54;12.25;;;8.02;;
25333;SDS011;24559;53.590;9.764;2023-07-30T06:02:21;14.82;;;7.90;;
25333;SDS011;24559;53.590;9.764;2023-07-30T06:04:47;18.40;;;9.75;;
25333;SDS011;24559;53.590;9.764;2023-07-30T06:07:14;12.70;;;7.38;;
25333;SDS011;24559;53.590;9.764;2023-07-30T06:09:40;11.13;;;7.68;;
25333;SDS011;24559;53.590;9.764;2023-07-30T06:12:06;13.35;;;7.63;;
25333;SDS011;24559;53.590;9.764;2023-07-30T06:14:34;15.07;;;7.25;;
25333;SDS011;24559;53.590;9.764;2023-07-30T06:17:00;15.93;;;7.78;;
25333;SDS011;24559;53.590;9.764;2023-07-30T06:19:27;13.30;;;7.60;;
25333;SDS011;24559;53.590;9.764;2023-07-30T06:21:53;13.93;;;7.78;;
25333;SDS011;24559;53.590;9.764;2023-07-30T06:24:19;12.55;;;7.97;;
25333;SDS011;24559;53.590;9.764;2023-07-30T06:26:45;11.93;;;7.22;;
25333;SDS011;24559;53.590;9.764;2023-07-30T06:29:11;12.32;;;7.90;;
25333;SDS011;24559;53.590;9.764;2023-07-30T06:31:40;16.17;;;9.18;;
25333;SDS011;24559;53.590;9.764;2023-07-30T06:34:07;16.40;;;8.43;;
25333;SDS011;24559;53.590;9.764;2023-07-30T06:36:33;16.75;;;8.95;;
25333;SDS011;24559;53.590;9.764;2023-07-30T06:38:59;15.05;;;7.78;;
25333;SDS011;24559;53.590;9.764;2023-07-30T06:41:26;18.27;;;7.70;;
25333;SDS011;24559;53.590;9.764;2023-07-30T06:43:52;15.70;;;8.20;;
25333;SDS011;24559;53.590;9.764;2023-07-30T06:46:18;14.75;;;8.30;;
25333;SDS011;24559;53.590;9.764;2023-07-30T06:48:44;15.57;;;7.72;;
25333;SDS011;24559;53.590;9.764;2023-07-30T06:51:11;18.63;;;7.43;;
25333;SDS011;24559;53.590;9.764;2023-07-30T06:53:39;16.27;;;7.38;;
25333;SDS011;24559;53.590;9.764;2023-07-30T06:56:05;14.77;;;6.55;;
25333;SDS011;24559;53.590;9.764;2023-07-30T06:58:31;14.45;;;7.15;;
25333;SDS011;24559;53.590;9.764;2023-07-30T07:00:57;14.27;;;6.68;;
25333;SDS011;24559;53.590;9.764;2023-07-30T07:03:24;13.73;;;7.65;;
25333;SDS011;24559;53.590;9.764;2023-07-30T07:05:54;19.88;;;7.43;;
25333;SDS011;24559;53.590;9.764;2023-07-30T07:08:20;16.65;;;6.75;;
25333;SDS011;24559;53.590;9.764;2023-07-30T07:10:47;13.75;;;6.53;;
25333;SDS011;24559;53.590;9.764;2023-07-30T07:13:13;15.45;;;6.38;;
25333;SDS011;24559;53.590;9.764;2023-07-30T07:15:40;22.13;;;7.43;;
25333;SDS011;24559;53.590;9.764;2023-07-30T07:18:07;18.05;;;7.18;;
25333;SDS011;24559;53.590;9.764;2023-07-30T07:20:33;22.08;;;6.75;;
25333;SDS011;24559;53.590;9.764;2023-07-30T07:22:59;22.48;;;6.95;;
25333;SDS011;24559;53.590;9.764;2023-07-30T07:25:25;18.05;;;6.53;;
25333;SDS011;24559;53.590;9.764;2023-07-30T07:27:52;16.17;;;6.35;;
25333;SDS011;24559;53.590;9.764;2023-07-30T07:30:18;11.25;;;6.00;;
25333;SDS011;24559;53.590;9.764;2023-07-30T07:32:44;16.75;;;6.10;;
25333;SDS011;24559;53.590;9.764;2023-07-30T07:35:15;21.90;;;7.55;;
25333;SDS011;24559;53.590;9.764;2023-07-30T07:37:41;17.60;;;6.70;;
25333;SDS011;24559;53.590;9.764;2023-07-30T07:40:07;18.30;;;6.63;;
25333;SDS011;24559;53.590;9.764;2023-07-30T07:42:35;17.88;;;6.15;;
25333;SDS011;24559;53.590;9.764;2023-07-30T07:45:01;15.75;;;6.15;;
25333;SDS011;24559;53.590;9.764;2023-07-30T07:47:28;20.38;;;6.97;;
25333;SDS011;24559;53.590;9.764;2023-07-30T07:49:54;13.60;;;6.35;;
25333;SDS011;24559;53.590;9.764;2023-07-30T07:52:20;14.93;;;6.32;;
25333;SDS011;24559;53.590;9.764;2023-07-30T07:54:46;15.10;;;6.82;;
25333;SDS011;24559;53.590;9.764;2023-07-30T07:57:13;17.77;;;6.28;;
25333;SDS011;24559;53.590;9.764;2023-07-30T07:59:39;20.20;;;6.80;;
25333;SDS011;24559;53.590;9.764;2023-07-30T08:02:06;13.05;;;6.43;;
25333;SDS011;24559;53.590;9.764;2023-07-30T08:04:33;21.85;;;7.80;;
25333;SDS011;24559;53.590;9.764;2023-07-30T08:06:59;13.80;;;6.63;;
25333;SDS011;24559;53.590;9.764;2023-07-30T08:09:28;17.58;;;6.82;;
25333;SDS011;24559;53.590;9.764;2023-07-30T08:11:54;15.07;;;5.82;;
25333;SDS011;24559;53.590;9.764;2023-07-30T08:14:20;15.05;;;6.25;;
25333;SDS011;24559;53.590;9.764;2023-07-30T08:16:47;21.83;;;8.07;;
25333;SDS011;24559;53.590;9.764;2023-07-30T08:19:13;13.82;;;7.00;;
25333;SDS011;24559;53.590;9.764;2023-07-30T08:21:39;16.65;;;6.90;;
25333;SDS011;24559;53.590;9.764;2023-07-30T08:24:05;19.95;;;7.22;;
25333;SDS011;24559;53.590;9.764;2023-07-30T08:26:32;13.65;;;6.72;;
25333;SDS011;24559;53.590;9.764;2023-07-30T08:28:58;15.32;;;6.13;;
25333;SDS011;24559;53.590;9.764;2023-07-30T08:31:24;18.60;;;6.53;;
25333;SDS011;24559;53.590;9.764;2023-07-30T08:33:51;13.80;;;5.45;;
25333;SDS011;24559;53.590;9.764;2023-07-30T08:36:17;13.43;;;5.75;;
25333;SDS011;24559;53.590;9.764;2023-07-30T08:38:43;12.23;;;4.90;;
25333;SDS011;24559;53.590;9.764;2023-07-30T08:41:09;12.35;;;4.90;;
25333;SDS011;24559;53.590;9.764;2023-07-30T08:43:36;13.10;;;5.25;;
25333;SDS011;24559;53.590;9.764;2023-07-30T08:46:02;18.38;;;5.25;;
25333;SDS011;24559;53.590;9.764;2023-07-30T08:48:29;14.25;;;5.43;;
25333;SDS011;24559;53.590;9.764;2023-07-30T08:50:58;12.75;;;4.20;;
25333;SDS011;24559;53.590;9.764;2023-07-30T08:53:25;15.60;;;5.28;;
25333;SDS011;24559;53.590;9.764;2023-07-30T08:55:53;14.10;;;4.50;;
25333;SDS011;24559;53.590;9.764;2023-07-30T08:58:21;10.15;;;4.05;;
25333;SDS011;24559;53.590;9.764;2023-07-30T09:00:49;9.52;;;3.50;;
25333;SDS011;24559;53.590;9.764;2023-07-30T09:03:16;11.95;;;4.22;;
25333;SDS011;24559;53.590;9.764;2023-07-30T09:05:43;12.57;;;3.85;;
25333;SDS011;24559;53.590;9.764;2023-07-30T09:08:10;11.43;;;4.47;;
25333;SDS011;24559;53.590;9.764;2023-07-30T09:10:36;17.25;;;4.63;;
25333;SDS011;24559;53.590;9.764;2023-07-30T09:13:02;11.77;;;4.28;;
25333;SDS011;24559;53.590;9.764;2023-07-30T09:15:29;13.27;;;4.85;;
25333;SDS011;24559;53.590;9.764;2023-07-30T09:17:57;12.98;;;4.20;;
25333;SDS011;24559;53.590;9.764;2023-07-30T09:20:24;15.48;;;4.38;;
25333;SDS011;24559;53.590;9.764;2023-07-30T09:22:50;9.68;;;3.88;;
25333;SDS011;24559;53.590;9.764;2023-07-30T09:25:18;11.57;;;4.63;;
25333;SDS011;24559;53.590;9.764;2023-07-30T09:27:49;11.93;;;4.45;;
25333;SDS011;24559;53.590;9.764;2023-07-30T09:30:15;11.15;;;4.25;;
25333;SDS011;24559;53.590;9.764;2023-07-30T09:32:50;15.75;;;5.18;;
25333;SDS011;24559;53.590;9.764;2023-07-30T09:35:17;15.48;;;6.07;;
25333;SDS011;24559;53.590;9.764;2023-07-30T09:37:43;15.45;;;5.30;;
25333;SDS011;24559;53.590;9.764;2023-07-30T09:40:13;12.55;;;5.82;;
25333;SDS011;24559;53.590;9.764;2023-07-30T09:42:42;14.18;;;5.10;;
25333;SDS011;24559;53.590;9.764;2023-07-30T09:45:16;11.30;;;5.43;;
25333;SDS011;24559;53.590;9.764;2023-07-30T09:47:49;11.95;;;5.22;;
25333;SDS011;24559;53.590;9.764;2023-07-30T09:50:15;15.95;;;6.63;;
25333;SDS011;24559;53.590;9.764;2023-07-30T09:52:42;10.98;;;5.43;;
25333;SDS011;24559;53.590;9.764;2023-07-30T09:55:09;13.77;;;5.57;;
25333;SDS011;24559;53.590;9.764;2023-07-30T09:57:36;12.48;;;5.22;;
25333;SDS011;24559;53.590;9.764;2023-07-30T10:00:02;11.50;;;4.97;;
25333;SDS011;24559;53.590;9.764;2023-07-30T10:02:32;9.52;;;4.22;;
25333;SDS011;24559;53.590;9.764;2023-07-30T10:05:03;11.32;;;4.68;;
25333;SDS011;24559;53.590;9.764;2023-07-30T10:07:31;12.55;;;5.40;;
25333;SDS011;24559;53.590;9.764;2023-07-30T10:09:59;12.65;;;4.55;;
25333;SDS011;24559;53.590;9.764;2023-07-30T10:12:28;13.18;;;4.65;;
25333;SDS011;24559;53.590;9.764;2023-07-30T10:14:56;11.93;;;4.13;;
25333;SDS011;24559;53.590;9.764;2023-07-30T10:17:22;13.20;;;4.20;;
25333;SDS011;24559;53.590;9.764;2023-07-30T10:19:48;9.15;;;4.13;;
25333;SDS011;24559;53.590;9.764;2023-07-30T10:24:57;10.65;;;4.40;;
25333;SDS011;24559;53.590;9.764;2023-07-30T10:27:24;11.43;;;3.95;;
25333;SDS011;24559;53.590;9.764;2023-07-30T10:30:12;10.02;;;4.15;;
25333;SDS011;24559;53.590;9.764;2023-07-30T10:32:38;7.68;;;3.40;;
25333;SDS011;24559;53.590;9.764;2023-07-30T10:35:04;9.30;;;3.88;;
25333;SDS011;24559;53.590;9.764;2023-07-30T10:37:31;12.10;;;3.33;;
25333;SDS011;24559;53.590;9.764;2023-07-30T10:39:57;10.93;;;3.22;;
25333;SDS011;24559;53.590;9.764;2023-07-30T10:42:23;5.85;;;2.60;;
25333;SDS011;24559;53.590;9.764;2023-07-30T10:44:49;11.25;;;3.72;;
25333;SDS011;24559;53.590;9.764;2023-07-30T10:47:15;7.97;;;2.33;;
25333;SDS011;24559;53.590;9.764;2023-07-30T10:49:42;5.55;;;2.00;;
25333;SDS011;24559;53.590;9.764;2023-07-30T10:52:09;7.63;;;2.50;;
25333;SDS011;24559;53.590;9.764;2023-07-30T10:54:35;9.60;;;2.53;;
25333;SDS011;24559;53.590;9.764;2023-07-30T10:57:05;11.32;;;2.58;;
25333;SDS011;24559;53.590;9.764;2023-07-30T10:59:34;6.80;;;1.98;;
25333;SDS011;24559;53.590;9.764;2023-07-30T11:02:01;6.10;;;2.38;;
25333;SDS011;24559;53.590;9.764;2023-07-30T11:04:27;8.45;;;2.20;;
25333;SDS011;24559;53.590;9.764;2023-07-30T11:06:54;5.68;;;1.95;;
25333;SDS011;24559;53.590;9.764;2023-07-30T11:09:21;8.75;;;2.10;;
25333;SDS011;24559;53.590;9.764;2023-07-30T11:11:50;6.72;;;2.10;;
25333;SDS011;24559;53.590;9.764;2023-07-30T11:14:18;7.93;;;2.50;;
25333;SDS011;24559;53.590;9.764;2023-07-30T11:16:48;8.48;;;3.00;;
25333;SDS011;24559;53.590;9.764;2023-07-30T11:19:15;6.85;;;1.95;;
25333;SDS011;24559;53.590;9.764;2023-07-30T11:21:45;9.43;;;2.10;;
25333;SDS011;24559;53.590;9.764;2023-07-30T11:24:11;7.55;;;2.05;;
25333;SDS011;24559;53.590;9.764;2023-07-30T11:26:37;6.25;;;2.42;;
25333;SDS011;24559;53.590;9.764;2023-07-30T11:29:16;8.68;;;2.83;;
25333;SDS011;24559;53.590;9.764;2023-07-30T11:31:46;9.43;;;2.53;;
25333;SDS011;24559;53.590;9.764;2023-07-30T11:34:13;8.25;;;2.55;;
25333;SDS011;24559;53.590;9.764;2023-07-30T11:36:42;6.97;;;2.60;;
25333;SDS011;24559;53.590;9.764;2023-07-30T11:39:09;6.07;;;2.42;;
25333;SDS011;24559;53.590;9.764;2023-07-30T11:41:36;6.53;;;2.22;;
25333;SDS011;24559;53.590;9.764;2023-07-30T11:44:02;9.50;;;2.90;;
25333;SDS011;24559;53.590;9.764;2023-07-30T11:46:29;6.75;;;2.45;;
25333;SDS011;24559;53.590;9.764;2023-07-30T11:49:11;4.63;;;2.50;;
25333;SDS011;24559;53.590;9.764;2023-07-30T11:51:37;5.43;;;2.67;;
25333;SDS011;24559;53.590;9.764;2023-07-30T11:54:04;4.68;;;2.17;;
25333;SDS011;24559;53.590;9.764;2023-07-30T11:56:30;5.82;;;2.00;;
25333;SDS011;24559;53.590;9.764;2023-07-30T11:58:58;7.22;;;2.20;;
25333;SDS011;24559;53.590;9.764;2023-07-30T12:01:26;4.68;;;2.53;;
25333;SDS011;24559;53.590;9.764;2023-07-30T12:03:56;9.18;;;2.80;;
25333;SDS011;24559;53.590;9.764;2023-07-30T12:06:23;7.63;;;2.45;;
25333;SDS011;24559;53.590;9.764;2023-07-30T12:08:50;6.57;;;2.50;;
25333;SDS011;24559;53.590;9.764;2023-07-30T12:11:19;5.72;;;2.42;;
25333;SDS011;24559;53.590;9.764;2023-07-30T12:13:46;9.73;;;2.80;;
25333;SDS011;24559;53.590;9.764;2023-07-30T12:16:12;7.38;;;2.70;;
25333;SDS011;24559;53.590;9.764;2023-07-30T12:18:39;9.57;;;2.35;;
25333;SDS011;24559;53.590;9.764;2023-07-30T12:21:06;7.90;;;2.60;;
25333;SDS011;24559;53.590;9.764;2023-07-30T12:23:33;8.18;;;2.45;;
25333;SDS011;24559;53.590;9.764;2023-07-30T12:25:59;8.43;;;2.40;;
25333;SDS011;24559;53.590;9.764;2023-07-30T12:28:26;5.18;;;2.13;;
25333;SDS011;24559;53.590;9.764;2023-07-30T12:30:52;9.13;;;3.05;;
25333;SDS011;24559;53.590;9.764;2023-07-30T12:33:18;9.38;;;2.58;;
25333;SDS011;24559;53.590;9.764;2023-07-30T12:35:44;5.22;;;2.50;;
25333;SDS011;24559;53.590;9.764;2023-07-30T12:38:10;7.95;;;2.28;;
25333;SDS011;24559;53.590;9.764;2023-07-30T12:40:37;7.88;;;2.58;;
25333;SDS011;24559;53.590;9.764;2023-07-30T12:43:03;6.35;;;2.75;;
25333;SDS011;24559;53.590;9.764;2023-07-30T12:45:29;7.25;;;2.83;;
25333;SDS011;24559;53.590;9.764;2023-07-30T12:47:56;5.32;;;2.90;;
25333;SDS011;24559;53.590;9.764;2023-07-30T12:50:23;6.22;;;2.92;;
25333;SDS011;24559;53.590;9.764;2023-07-30T12:52:49;10.93;;;2.63;;
25333;SDS011;24559;53.590;9.764;2023-07-30T12:55:15;7.15;;;3.35;;
25333;SDS011;24559;53.590;9.764;2023-07-30T12:57:42;9.15;;;3.13;;
25333;SDS011;24559;53.590;9.764;2023-07-30T13:00:08;4.38;;;2.15;;
25333;SDS011;24559;53.590;9.764;2023-07-30T13:02:34;8.00;;;2.13;;
25333;SDS011;24559;53.590;9.764;2023-07-30T13:05:01;6.93;;;2.53;;
25333;SDS011;24559;53.590;9.764;2023-07-30T13:07:29;11.15;;;2.53;;
25333;SDS011;24559;53.590;9.764;2023-07-30T13:10:02;11.52;;;2.40;;
25333;SDS011;24559;53.590;9.764;2023-07-30T13:12:28;6.75;;;2.03;;
25333;SDS011;24559;53.590;9.764;2023-07-30T13:14:55;2.92;;;1.77;;
25333;SDS011;24559;53.590;9.764;2023-07-30T13:17:21;4.47;;;1.83;;
25333;SDS011;24559;53.590;9.764;2023-07-30T13:19:47;6.35;;;1.92;;
25333;SDS011;24559;53.590;9.764;2023-07-30T13:22:13;5.53;;;1.75;;
25333;SDS011;24559;53.590;9.764;2023-07-30T13:24:39;3.10;;;1.80;;
25333;SDS011;24559;53.590;9.764;2023-07-30T13:27:05;4.55;;;1.73;;
25333;SDS011;24559;53.590;9.764;2023-07-30T13:29:32;2.90;;;1.67;;
25333;SDS011;24559;53.590;9.764;2023-07-30T13:31:58;3.22;;;1.58;;
25333;SDS011;24559;53.590;9.764;2023-07-30T13:34:24;2.70;;;1.27;;
25333;SDS011;24559;53.590;9.764;2023-07-30T13:36:50;2.63;;;1.67;;
25333;SDS011;24559;53.590;9.764;2023-07-30T13:39:16;5.10;;;1.30;;
25333;SDS011;24559;53.590;9.764;2023-07-30T13:41:43;4.10;;;1.42;;
25333;SDS011;24559;53.590;9.764;2023-07-30T13:44:09;6.60;;;1.65;;
25333;SDS011;24559;53.590;9.764;2023-07-30T13:46:37;1.95;;;0.98;;
25333;SDS011;24559;53.590;9.764;2023-07-30T13:49:05;4.38;;;1.75;;
25333;SDS011;24559;53.590;9.764;2023-07-30T13:51:31;4.35;;;1.65;;
25333;SDS011;24559;53.590;9.764;2023-07-30T13:53:58;5.18;;;1.45;;
25333;SDS011;24559;53.590;9.764;2023-07-30T13:56:25;4.65;;;1.50;;
25333;SDS011;24559;53.590;9.764;2023-07-30T13:58:51;2.33;;;1.33;;
25333;SDS011;24559;53.590;9.764;2023-07-30T14:01:17;4.00;;;1.40;;
25333;SDS011;24559;53.590;9.764;2023-07-30T14:03:44;5.20;;;1.40;;
25333;SDS011;24559;53.590;9.764;2023-07-30T14:06:10;6.20;;;1.58;;
25333;SDS011;24559;53.590;9.764;2023-07-30T14:08:37;1.75;;;1.35;;
25333;SDS011;24559;53.590;9.764;2023-07-30T14:11:03;4.18;;;1.42;;
25333;SDS011;24559;53.590;9.764;2023-07-30T14:13:29;2.10;;;1.23;;
25333;SDS011;24559;53.590;9.764;2023-07-30T14:15:55;2.00;;;1.25;;
25333;SDS011;24559;53.590;9.764;2023-07-30T14:18:22;3.72;;;1.40;;
25333;SDS011;24559;53.590;9.764;2023-07-30T14:20:48;4.55;;;1.55;;
25333;SDS011;24559;53.590;9.764;2023-07-30T14:23:14;2.35;;;1.25;;
25333;SDS011;24559;53.590;9.764;2023-07-30T14:25:40;3.38;;;1.50;;
25333;SDS011;24559;53.590;9.764;2023-07-30T14:28:07;2.65;;;1.38;;
25333;SDS011;24559;53.590;9.764;2023-07-30T14:30:33;2.67;;;1.20;;
25333;SDS011;24559;53.590;9.764;2023-07-30T14:33:03;3.38;;;1.38;;
25333;SDS011;24559;53.590;9.764;2023-07-30T14:35:30;4.43;;;1.50;;
25333;SDS011;24559;53.590;9.764;2023-07-30T14:37:57;2.00;;;1.45;;
25333;SDS011;24559;53.590;9.764;2023-07-30T14:40:23;3.50;;;1.45;;